ADDS METAR Data INFO
IDs: Format: Raw Decoded Include TAF

Data at: 1811 UTC 18 Feb 2018

KMYL 181751Z AUTO 19007KT 10SM BKN065 M02/M08 A2948 RMK AO2 SLP996 60000 T10171083 11011 21078 58006
KMYL 181651Z AUTO 12004KT 10SM FEW050 BKN070 M03/M06 A2949 RMK AO2 SLP004 T10281056
KMYL 181551Z AUTO 00000KT 10SM SCT040 BKN055 OVC075 M06/M08 A2949 RMK AO2 SNB26E36 SLP009 P0000 T10611078
KMYL 181451Z AUTO 03003KT 10SM SCT040 BKN060 BKN085 M07/M08 A2950 RMK AO2 SLP015 T10671083 58001
KMYL 181351Z AUTO 10005KT 10SM FEW049 M06/M09 A2951 RMK AO2 SLP018 T10561089
KMYL 181251Z AUTO 26005KT 10SM FEW080 M04/M08 A2950 RMK AO2 SLP005 T10391083
KMYL 181151Z AUTO 27008KT 10SM FEW075 SCT090 M02/M07 A2950 RMK AO2 SNE09 SLP005 P0001 60002 70030 T10221072 10017 21033 50002
KMYL 181117Z AUTO 26007KT 10SM FEW018 BKN075 OVC090 M02/M06 A2950 RMK AO2 SNE09 P0001 T10171056
KMYL 181100Z AUTO 25008KT 3SM -SN BR FEW018 OVC023 M02/M04 A2950 RMK AO2 P0001 T10171039
KMYL 181058Z AUTO 25008KT 1 3/4SM -SN BR OVC021 M02/M03 A2950 RMK AO2 P0001 T10171033
KMYL 181051Z AUTO 24008KT 1SM -SN BR VV019 M02/M04 A2950 RMK AO2 SNB08 SLP008 P0001 T10171039
KMYL 181047Z AUTO 24010KT 1 1/4SM -SN BR OVC021 M02/M04 A2950 RMK AO2 SNB08 P0001
KMYL 181039Z AUTO 22011KT 2 1/2SM -SN OVC029 M01/M04 A2950 RMK AO2 VIS 2V3 SNB08 P0001 T10111044
KMYL 181030Z AUTO 23011KT 2 1/2SM -SN OVC032 M01/M04 A2950 RMK AO2 SNB08 P0000 T10061044
KMYL 180951Z AUTO 18005KT 10SM BKN043 OVC055 M02/M06 A2949 RMK AO2 SLP004 T10171056
KMYL 180851Z AUTO 00000KT 10SM CLR M01/M06 A2951 RMK AO2 SLP007 60000 T10061061 58013
KMYL 180751Z AUTO VRB05KT 10SM FEW110 00/M04 A2953 RMK AO2 SLP013 T00001044
KMYL 180651Z AUTO 29005KT 10SM FEW070 BKN100 OVC120 01/M03 A2954 RMK AO2 UPE00 SLP018 P0000 T00061028 400331056
KMYL 180551Z AUTO 25007KT 9SM UP FEW020 BKN055 OVC080 02/M02 A2955 RMK AO2 UPB12E32B51SNB32E51 SLP021 P0000 60018 T00171022 10033 20000 56014
KMYL 180544Z AUTO VRB05KT 9SM -SN SCT022 OVC055 01/M02 A2955 RMK AO2 UPB12E32SNB32 P0000 T00111017
KMYL 180516Z AUTO 26005KT 10SM UP FEW022 BKN026 OVC042 02/M02 A2956 RMK AO2 UPB12 P0000 T00171017
KMYL 180451Z AUTO 20004KT 10SM SCT030 BKN037 OVC100 02/M01 A2957 RMK AO2 LTG DSNT S SLP026 T00171011
KMYL 180351Z AUTO 24007KT 10SM FEW021 BKN075 OVC120 02/M01 A2958 RMK AO2 PK WND 21029/0302 SNE17 SLP031 P0001 T00221011
KMYL 180312Z AUTO 22016G29KT 7SM -SN OVC038 02/M01 A2958 RMK AO2 PK WND 21029/0302 P0001 T00171011
KMYL 180306Z AUTO 21016G29KT 5SM -SN BR OVC028 02/M01 A2958 RMK AO2 PK WND 21029/0302 P0001 T00171006
KMYL 180259Z AUTO 21015G25KT 2 1/2SM -SN BR OVC015 01/00 A2959 RMK AO2 VIS 1 1/2V4 P0001 T00110000
KMYL 180251Z AUTO 21011KT 1 1/2SM -SN BR OVC010 01/M01 A2960 RMK AO2 SLP041 P0012 60017 T00061006 55011
KMYL 180225Z AUTO 26010KT 3/4SM -SN BR VV007 01/M01 A2960 RMK AO2 P0005 T00061006
KMYL 180213Z AUTO 31006KT 1SM -SN BR VV009 01/M01 A2959 RMK AO2 P0003 T00061006
KMYL 180159Z AUTO 31005KT 1 1/2SM -SN BR BKN009 OVC013 01/M01 A2961 RMK AO2 P0000 T00061006
KMYL 180151Z AUTO 35005KT 1 1/4SM -SN BR OVC011 00/M01 A2960 RMK AO2 RAB0055E16SNB16 SLP047 P0005 T00001006
KMYL 180141Z AUTO 00000KT 1SM -SN BR BKN013 OVC020 01/M01 A2960 RMK AO2 RAB0055E16SNB16 P0004 T00061006
KMYL 180138Z AUTO VRB03KT 1 1/2SM -SN BR BKN013 OVC020 01/M01 A2959 RMK AO2 RAB0055E16SNB16 P0003 T00061006
KMYL 180132Z AUTO 32005KT 2SM -SN BR FEW010 BKN017 OVC022 01/M01 A2960 RMK AO2 RAB0055E16SNB16 P0003 T00061006
KMYL 180128Z AUTO 31005KT 1SM -SN BR FEW013 BKN020 OVC026 01/M01 A2960 RMK AO2 RAB0055E16SNB16 P0003 T00061006
KMYL 180120Z AUTO 27003KT 1 3/4SM -SN BR FEW013 BKN021 OVC026 01/M01 A2960 RMK AO2 RAB0055E16SNB16 P0001 T00111006
KMYL 180051Z AUTO 19017G25KT 10SM OVC025 03/M01 A2960 RMK AO2 PK WND 18031/0023 SLP038 T00331011
KMYL 172351Z AUTO 17021KT 10SM OVC019 02/M01 A2964 RMK AO2 PK WND 18027/2340 SNE2256 SLP057 P0000 60010 T00221011 10022 21011 58043
KMYL 172258Z AUTO 14014G22KT 9SM OVC015 01/M02 A2970 RMK AO2 SNE56 P0000 T00061017
KMYL 172251Z AUTO 13014KT 2SM -SN BR OVC015 01/M02 A2971 RMK AO2 SLP084 P0001 T00061017
KMYL 172239Z AUTO 14012G20KT 1SM -SN BR OVC015 00/M02 A2972 RMK AO2 P0000 T00001017
KMYL 172230Z AUTO 14012KT 1 1/4SM -SN BR OVC015 00/M02 A2972 RMK AO2 P0000 T00001017
KMYL 172224Z AUTO 14013G22KT 2SM -SN BR SCT012 OVC019 00/M02 A2972 RMK AO2 P0000 T00001017
KMYL 172207Z AUTO 13016G21KT 5SM -SN BR BKN012 OVC018 00/M02 A2973 RMK AO2 P0000 T00001022
KMYL 172154Z AUTO 15011G19KT 2 1/2SM -SN BR FEW009 BKN014 OVC018 00/M02 A2974 RMK AO2 VIS 1 3/4V4 P0000 T00001017
KMYL 172151Z AUTO 14013KT 3SM -SN BR BKN012 OVC018 00/M02 A2974 RMK AO2 SLP099 P0001 T00001017
KMYL 172147Z AUTO 14013KT 3SM -SN BR BKN013 OVC020 00/M02 A2975 RMK AO2 P0001
KMYL 172139Z AUTO 15013KT 2SM -SN BR BKN013 BKN019 OVC024 00/M02 A2975 RMK AO2 P0001 T00001017
KMYL 172130Z AUTO 15014G22KT 2 1/2SM -SN BR SCT011 BKN017 OVC030 00/M02 A2975 RMK AO2 P0001 T00001017
KMYL 172111Z AUTO 15015G22KT 3SM -SN BR FEW014 SCT019 OVC028 00/M02 A2977 RMK AO2 P0001 T00001017
KMYL 172051Z AUTO 16015KT 2 1/2SM -SN BR FEW014 BKN026 OVC032 00/M02 A2979 RMK AO2 SLP111 P0002 60008 T00001017 58038
KMYL 172038Z AUTO 16015G22KT 2 1/2SM -SN BR FEW007 BKN021 OVC026 00/M02 A2979 RMK AO2 P0002 T00001017
KMYL 172030Z AUTO 16012KT 1 1/2SM -SN BR FEW007 BKN017 OVC022 00/M02 A2980 RMK AO2 P0002 T00001017
KMYL 172019Z AUTO 15013KT 1SM -SN BR SCT007 OVC015 00/M02 A2981 RMK AO2 P0002 T00001017
KMYL 171951Z AUTO 15009KT 3/4SM -SN BR SCT006 BKN013 OVC020 M01/M02 A2984 RMK AO2 SLP129 P0004 T10061017
KMYL 171941Z AUTO 15008KT 3/4SM -SN BR FEW004 SCT008 OVC013 M01/M02 A2985 RMK AO2 P0004 T10061017
KMYL 171933Z AUTO 16009KT 1SM -SN BR SCT004 BKN010 OVC015 M01/M02 A2986 RMK AO2 P0003 T10061017
KMYL 171922Z AUTO 16008KT 3/4SM -SN BR FEW004 BKN008 OVC015 M01/M02 A2986 RMK AO2 P0003 T10061022
KMYL 171905Z AUTO 15010KT 1/2SM SN FZFG VV012 M01/M02 A2987 RMK AO2 P0001 T10061022
KMYL 171859Z AUTO 15010KT 1/2SM SN FZFG FEW007 OVC015 M01/M02 A2987 RMK AO2 P0001 T10111022
KMYL 171851Z AUTO 16007KT 3/4SM -SN BR BKN017 BKN023 OVC036 M01/M03 A2988 RMK AO2 SLP147 P0002 T10111028
KMYL 171843Z AUTO 14010KT 1 3/4SM -SN BR BKN021 BKN026 OVC036 M01/M03 A2988 RMK AO2 P0002 T10111028
KMYL 171834Z AUTO 15008KT 3SM -SN BR FEW018 BKN029 OVC037 M01/M03 A2988 RMK AO2 P0001 T10111028
KMYL 171831Z AUTO 14008KT 2 1/2SM -SN BR FEW018 SCT026 OVC034 M01/M03 A2989 RMK AO2 P0001 T10111028
KMYL 171824Z AUTO 13012KT 1 1/2SM -SN BR FEW018 BKN027 OVC036 M01/M03 A2989 RMK AO2 P0001 T10111033
KMYL 171817Z AUTO 14009KT 2SM -SN BR BKN027 OVC036 M01/M03 A2989 RMK AO2 P0001 T10111033
KMYL 171751Z AUTO 15009KT 2 1/2SM -SN SCT023 BKN031 OVC038 M01/M04 A2992 RMK AO2 SNB43 SLP160 P0000 60000 T10111039 11006 21044 58009
KMYL 171651Z AUTO 16010KT 10SM OVC025 M01/M04 A2994 RMK AO2 SLP168 T10111044
KMYL 171551Z AUTO 16009KT 10SM BKN023 M01/M05 A2995 RMK AO2 SLP171 T10111050
KMYL 171549Z AUTO 16009KT 10SM BKN023 M01/M05 A2995 RMK AO2
KMYL 171533Z AUTO 16010KT 10SM SCT025 SCT075 M02/M05 A2996 RMK AO2 T10171050
KMYL 171451Z AUTO 16008KT 10SM OVC022 M02/M05 A2998 RMK AO2 SLP184 T10171050 56013
KMYL 171421Z AUTO 00000KT 10SM BKN022 OVC085 M04/M06 A2999 RMK AO2 T10391056
KMYL 171351Z AUTO 00000KT 10SM FEW024 SCT041 OVC085 M04/M06 A2999 RMK AO2 SLP194 T10441061
KMYL 171348Z AUTO 00000KT 10SM SCT024 SCT041 OVC085 M04/M06 A2999 RMK AO2
KMYL 171251Z AUTO 00000KT 10SM OVC026 M04/M06 A3002 RMK AO2 SLP201 T10391056
KMYL 171151Z AUTO 00000KT 10SM BKN027 OVC034 M04/M06 A3004 RMK AO2 SLP211 60000 70005 T10441061 11033 21056 58009
KMYL 171122Z AUTO 00000KT 10SM BKN029 BKN034 OVC047 M04/M06 A3005 RMK AO2 T10441056
KMYL 171051Z AUTO 00000KT 10SM OVC040 M04/M06 A3005 RMK AO2 SLP214 T10441056
KMYL 170951Z AUTO 00000KT 10SM OVC032 M05/M06 A3007 RMK AO2 SLP220 T10501061
KMYL 170914Z AUTO 32004KT 10SM SCT031 BKN055 OVC120 M04/M06 A3007 RMK AO2 T10441061
KMYL 170851Z AUTO 36003KT 10SM OVC027 M03/M05 A3007 RMK AO2 SLP219 60000 T10331050 58002
KMYL 170751Z AUTO 00000KT 10SM OVC021 M03/M05 A3008 RMK AO2 SNB05E18 SLP222 P0000 T10331050
KMYL 170651Z AUTO 32003KT 9SM OVC020 M03/M05 A3008 RMK AO2 SNB36E45 SLP225 P0000 T10331050 410331072